• Join FlightAware (Why Join?)
  • Login
  • US Flag 
11:17PM EDT


 

Airport Tracker/Info


-or-


 

Live Flight TrackerFlight Track Log ✈ SKW4664 ✈ 25-Jul-2013 ✈ KMSP - KFSD

Flight Track Log - Related Links

Times and Time Zones

All times are in EDT time to prevent confusion due to time zone crossing. See the SKW4664 flight status page for this flight to view local times or setup timezone preferences in your user account.

Time Position Orientation Groundspeed Altitude Reporting Facility
EDT Latitude Longitude Course Direction KTS MPH feet Rate Location/Type
10:39AM 44.8833 -93.2500 230° Southwest 164 189 2,300  Level Minneapolis TRACON
10:40AM 44.8864 -93.2978 275° West 179 206 3,400 1,740 Climbing Minneapolis Center
10:41AM 44.8728 -93.3842 257° West 229 264 5,400 2,580 Climbing Minneapolis Center
10:42AM 44.6520 -93.6961 235° Southwest  Level FlightAware Approximate
10:42AM 44.8369 -93.4936 245° Southwest 270 311 8,800  Level Minneapolis Center
10:43AM 44.5912 -93.8176 235° Southwest  Level FlightAware Approximate
10:43AM 44.7842 -93.5775 228° Southwest 290 334 10,700  Level Minneapolis Center
10:44AM 44.5206 -93.9268 230° Southwest  Level FlightAware Approximate
10:44AM 44.7244 -93.6744 229° Southwest 331 381 12,400  Level Minneapolis Center
10:45AM 44.6844 -93.7939 245° Southwest 339 390 14,400 1,920 Climbing Minneapolis Center
10:46AM 44.6436 -93.9153 245° Southwest 345 397 16,400 1,800 Climbing Minneapolis Center
10:47AM 44.5958 -94.0619 245° Southwest 346 398 18,200 1,620 Climbing Minneapolis Center
10:48AM 44.5536 -94.1894 245° Southwest 356 410 19,800 1,200 Climbing Minneapolis Center
10:49AM 44.5119 -94.3186 246° West 363 418 20,800 1,020 Climbing Minneapolis Center
10:50AM 44.4675 -94.4492 245° Southwest 370 426 22,000 540 Climbing Minneapolis Center
10:51AM 44.4222 -94.5817 244° Southwest 376 433 22,000  Level Minneapolis Center
10:52AM 44.3708 -94.7364 245° Southwest 389 448 22,000  Level Minneapolis Center
10:53AM 44.3228 -94.8775 245° Southwest 400 460 22,000  Level Minneapolis Center
10:54AM 44.2758 -95.0158 245° Southwest 396 456 22,000  Level Minneapolis Center
10:55AM 44.2289 -95.1525 244° Southwest 392 451 22,000 -360 Level Minneapolis Center
10:57AM 44.1487 -95.2623 225° Southwest  Level FlightAware Approximate
10:57AM 44.1261 -95.4486 225° Southwest 385 443 20,900  Level Minneapolis Center
10:58AM 44.0800 -95.5822 244° Southwest 384 442 18,800 -2,040 Descending Minneapolis Center
10:59AM 44.0350 -95.7111 244° Southwest 372 428 16,800 -1,920 Descending Minneapolis Center
11:00AM 43.9906 -95.8356 244° Southwest 360 414 14,900 -1,920 Descending Minneapolis Center
11:01AM 43.9478 -95.9583 244° Southwest 354 407 12,900 -1,980 Descending Minneapolis Center
11:02AM 43.9039 -96.0794 243° Southwest 350 403 10,900 -1,740 Descending Minneapolis Center
11:03AM 43.8581 -96.2061 243° Southwest 310 357 9,400 -1,440 Descending Minneapolis Center
11:04AM 43.8247 -96.3014 244° Southwest 286 329 8,000 -1,320 Descending Minneapolis Center
11:06AM 43.7922 -96.3925 244° Southwest 275 316 6,700 -1,380 Descending Minneapolis Center
11:07AM 43.7594 -96.4814 243° Southwest 267 307 5,200 -1,260 Descending Minneapolis Center
11:08AM 43.7289 -96.5656 243° Southwest 258 297 4,200 -1,020 Descending Minneapolis Center